Check out our new BloomSky Weather System.

Active alerts


No alerts


Thunder radar  blitzortung!


Rain radar more information rain snow radar


Visit our other weather sites:

Template documentation
and downloads

And another site



Weather Underground History page Text

Daily Summary for July 19, 2017 Units:  English    Metric   Both
« Previous Day
Next Day »
Daily Weekly Monthly Yearly Custom
  High: Low: Average:
Temperature: 97.2 °F 74.8 °F 85.7 °F
Dew Point: 81.7 °F 73.8 °F 77.1 °F
Humidity: 97 % 51 % 77 %
Wind Speed: 11.0 mph 0.0 mph 1.6 mph
Wind Gust: 14.0 mph - -
Wind:- - SSE
Pressure: 30.13 in 30.02 in -
Precipitation: 0.00 in    
Historical Graphs
 
 
Tabular Data for July 19, 2017
Time Temperature Dew Point Pressure Wind Wind Speed Wind Gust Humidity Rainfall Rate (Hourly)
00:00 80.2 °F 76.1 °F 30.04 in SSE 1.0 mph 1.0 mph 87 % 0.00 in
00:05 80.2 °F 76.1 °F 30.05 in SSW 1.0 mph 2.0 mph 87 % 0.00 in
00:10 80.4 °F 76.1 °F 30.05 in SSW 2.0 mph 2.0 mph 87 % 0.00 in
00:15 80.4 °F 76.1 °F 30.05 in SSE 1.0 mph 3.0 mph 87 % 0.00 in
00:20 80.2 °F 76.1 °F 30.05 in Calm   3.0 mph 87 % 0.00 in
00:25 80.2 °F 76.1 °F 30.05 in SSW 1.0 mph 2.0 mph 87 % 0.00 in
00:30 80.2 °F 76.1 °F 30.05 in South 2.0 mph 2.0 mph 87 % 0.00 in
00:35 80.1 °F 76.1 °F 30.05 in SSW 1.0 mph 2.0 mph 88 % 0.00 in
00:40 80.1 °F 76.1 °F 30.05 in SSE 1.0 mph 2.0 mph 88 % 0.00 in
00:45 80.1 °F 76.1 °F 30.05 in Calm   2.0 mph 88 % 0.00 in
00:50 80.1 °F 76.1 °F 30.06 in Calm   2.0 mph 88 % 0.00 in
00:55 79.9 °F 75.9 °F 30.05 in Calm   2.0 mph 88 % 0.00 in
01:00 79.9 °F 75.9 °F 30.05 in SSW 2.0 mph 3.0 mph 88 % 0.00 in
01:05 79.7 °F 76.1 °F 30.05 in Calm   3.0 mph 89 % 0.00 in
01:10 79.7 °F 76.1 °F 30.05 in SSW 1.0 mph 3.0 mph 89 % 0.00 in
01:15 79.5 °F 75.9 °F 30.05 in Calm   3.0 mph 89 % 0.00 in
01:20 79.3 °F 75.7 °F 30.05 in SSW 1.0 mph 3.0 mph 89 % 0.00 in
01:25 79.3 °F 75.7 °F 30.05 in Calm   3.0 mph 89 % 0.00 in
01:30 79.3 °F 75.7 °F 30.05 in Calm   3.0 mph 89 % 0.00 in
01:35 79.2 °F 75.9 °F 30.05 in ESE 1.0 mph 3.0 mph 90 % 0.00 in
01:40 79.2 °F 75.9 °F 30.05 in SE 1.0 mph 2.0 mph 90 % 0.00 in
01:45 79.0 °F 75.7 °F 30.05 in Calm   2.0 mph 90 % 0.00 in
01:50 78.8 °F 75.6 °F 30.05 in Calm   2.0 mph 90 % 0.00 in
01:55 78.4 °F 75.2 °F 30.05 in Calm   1.0 mph 90 % 0.00 in
02:00 78.4 °F 75.6 °F 30.05 in Calm   1.0 mph 91 % 0.00 in
02:05 78.3 °F 75.4 °F 30.05 in Calm   1.0 mph 91 % 0.00 in
02:10 78.1 °F 75.2 °F 30.05 in Calm   1.0 mph 91 % 0.00 in
02:15 77.7 °F 74.8 °F 30.05 in Calm     91 % 0.00 in
02:20 77.5 °F 74.7 °F 30.05 in Calm     91 % 0.00 in
02:25 77.4 °F 74.8 °F 30.05 in Calm     92 % 0.00 in
02:30 77.2 °F 74.7 °F 30.05 in Calm     92 % 0.00 in
02:35 77.2 °F 74.7 °F 30.05 in Calm     92 % 0.00 in
02:40 77.0 °F 74.8 °F 30.05 in Calm     93 % 0.00 in
02:45 77.0 °F 74.8 °F 30.05 in Calm     93 % 0.00 in
02:50 77.0 °F 75.2 °F 30.05 in Calm     94 % 0.00 in
02:55 76.8 °F 75.0 °F 30.05 in Calm     94 % 0.00 in
03:00 76.8 °F 75.0 °F 30.05 in Calm     94 % 0.00 in
03:05 76.6 °F 74.8 °F 30.05 in Calm     94 % 0.00 in
03:10 76.6 °F 74.8 °F 30.05 in Calm     94 % 0.00 in
03:15 76.5 °F 74.7 °F 30.05 in Calm     94 % 0.00 in
03:20 76.5 °F 74.7 °F 30.05 in Calm     94 % 0.00 in
03:25 76.5 °F 74.8 °F 30.05 in Calm     95 % 0.00 in
03:30 76.5 °F 74.8 °F 30.05 in Calm     95 % 0.00 in
03:35 76.5 °F 74.8 °F 30.05 in Calm     95 % 0.00 in
03:41 76.3 °F 74.7 °F 30.05 in Calm     95 % 0.00 in
03:46 76.3 °F 74.7 °F 30.05 in Calm     95 % 0.00 in
03:51 76.3 °F 74.7 °F 30.06 in Calm     95 % 0.00 in
03:56 76.3 °F 74.7 °F 30.06 in Calm     95 % 0.00 in
04:01 76.3 °F 75.0 °F 30.06 in Calm     96 % 0.00 in
04:06 76.3 °F 74.7 °F 30.06 in Calm     95 % 0.00 in
04:11 76.1 °F 74.8 °F 30.06 in Calm     96 % 0.00 in
04:16 76.1 °F 74.8 °F 30.06 in Calm     96 % 0.00 in
04:21 76.1 °F 74.8 °F 30.06 in Calm     96 % 0.00 in
04:26 75.9 °F 74.7 °F 30.06 in Calm     96 % 0.00 in
04:31 75.9 °F 74.7 °F 30.06 in Calm     96 % 0.00 in
04:36 75.7 °F 74.5 °F 30.06 in Calm     96 % 0.00 in
04:41 75.7 °F 74.5 °F 30.06 in Calm     96 % 0.00 in
04:46 75.7 °F 74.5 °F 30.06 in Calm     96 % 0.00 in
04:51 75.7 °F 74.5 °F 30.06 in Calm     96 % 0.00 in
04:56 75.7 °F 74.5 °F 30.06 in Calm     96 % 0.00 in
05:01 75.6 °F 74.3 °F 30.07 in Calm     96 % 0.00 in
05:06 75.6 °F 74.3 °F 30.07 in Calm     96 % 0.00 in
05:11 75.6 °F 74.3 °F 30.07 in Calm     96 % 0.00 in
05:16 75.6 °F 74.7 °F 30.06 in Calm     97 % 0.00 in
05:21 75.6 °F 74.7 °F 30.07 in Calm     97 % 0.00 in
05:26 75.6 °F 74.7 °F 30.07 in Calm     97 % 0.00 in
05:31 75.6 °F 74.7 °F 30.07 in Calm     97 % 0.00 in
05:37 75.4 °F 74.1 °F 30.07 in Calm     96 % 0.00 in
05:42 75.0 °F 73.8 °F 30.07 in Calm     96 % 0.00 in
05:47 75.0 °F 74.1 °F 30.07 in Calm     97 % 0.00 in
05:52 75.0 °F 74.1 °F 30.07 in Calm     97 % 0.00 in
05:57 75.0 °F 74.1 °F 30.07 in Calm     97 % 0.00 in
06:02 75.0 °F 74.1 °F 30.08 in Calm     97 % 0.00 in
06:07 74.8 °F 73.9 °F 30.08 in Calm     97 % 0.00 in
06:12 75.0 °F 74.1 °F 30.08 in Calm     97 % 0.00 in
06:17 75.2 °F 74.3 °F 30.08 in Calm     97 % 0.00 in
06:22 75.4 °F 74.5 °F 30.08 in Calm     97 % 0.00 in
06:27 75.6 °F 74.7 °F 30.09 in Calm   1.0 mph 97 % 0.00 in
06:32 75.6 °F 74.7 °F 30.09 in Calm   1.0 mph 97 % 0.00 in
06:37 75.6 °F 74.7 °F 30.09 in Calm   1.0 mph 97 % 0.00 in
06:42 75.6 °F 74.7 °F 30.09 in Calm   1.0 mph 97 % 0.00 in
06:47 75.6 °F 74.7 °F 30.09 in Calm   1.0 mph 97 % 0.00 in
06:52 75.7 °F 74.8 °F 30.09 in Calm   1.0 mph 97 % 0.00 in
06:57 75.7 °F 74.8 °F 30.09 in Calm   1.0 mph 97 % 0.00 in
07:02 75.7 °F 74.8 °F 30.10 in Calm   2.0 mph 97 % 0.00 in
07:07 75.9 °F 75.0 °F 30.10 in Calm   2.0 mph 97 % 0.00 in
07:12 75.9 °F 75.0 °F 30.10 in Calm   2.0 mph 97 % 0.00 in
07:17 76.3 °F 75.4 °F 30.10 in Calm   1.0 mph 97 % 0.00 in
07:22 77.0 °F 76.1 °F 30.10 in Calm     97 % 0.00 in
07:27 77.9 °F 77.0 °F 30.10 in Calm     97 % 0.00 in
07:32 78.6 °F 77.7 °F 30.10 in Calm   1.0 mph 97 % 0.00 in
07:37 79.2 °F 77.9 °F 30.10 in Calm   1.0 mph 96 % 0.00 in
07:42 79.3 °F 77.7 °F 30.10 in Calm   1.0 mph 95 % 0.00 in
07:47 79.9 °F 78.3 °F 30.11 in Calm   1.0 mph 95 % 0.00 in
07:52 80.6 °F 79.0 °F 30.11 in Calm   1.0 mph 95 % 0.00 in
07:57 81.1 °F 79.0 °F 30.11 in Calm   1.0 mph 93 % 0.00 in
08:02 81.7 °F 78.8 °F 30.11 in Calm   1.0 mph 91 % 0.00 in
08:07 82.2 °F 79.0 °F 30.12 in Calm   1.0 mph 90 % 0.00 in
08:12 83.1 °F 79.2 °F 30.12 in Calm     88 % 0.00 in
08:17 83.7 °F 79.0 °F 30.12 in Calm     86 % 0.00 in
08:22 84.0 °F 78.6 °F 30.12 in Calm     84 % 0.00 in
08:27 84.6 °F 78.8 °F 30.12 in Calm     83 % 0.00 in
08:32 85.3 °F 79.2 °F 30.12 in Calm     82 % 0.00 in
08:37 85.8 °F 79.3 °F 30.12 in Calm     81 % 0.00 in
08:42 86.7 °F 79.3 °F 30.12 in Calm     79 % 0.00 in
08:47 87.1 °F 79.7 °F 30.13 in Calm     79 % 0.00 in
08:50 87.6 °F 80.2 °F 30.12 in Calm     79 % 0.00 in
08:55 88.5 °F 80.1 °F 30.12 in Calm     76 % 0.00 in
09:00 89.2 °F 80.6 °F 30.12 in Calm     76 % 0.00 in
09:05 89.1 °F 79.7 °F 30.12 in Calm     74 % 0.00 in
09:10 88.9 °F 80.8 °F 30.12 in Calm   1.0 mph 77 % 0.00 in
09:15 88.5 °F 80.4 °F 30.12 in Calm   3.0 mph 77 % 0.00 in
09:20 88.5 °F 80.4 °F 30.12 in WNW 2.0 mph 3.0 mph 77 % 0.00 in
09:25 88.9 °F 81.5 °F 30.12 in Calm   3.0 mph 79 % 0.00 in
09:30 89.1 °F 80.4 °F 30.12 in SE 3.0 mph 3.0 mph 76 % 0.00 in
09:35 88.5 °F 79.5 °F 30.12 in ESE 1.0 mph 4.0 mph 75 % 0.00 in
09:40 88.3 °F 80.6 °F 30.12 in Calm   4.0 mph 78 % 0.00 in
09:45 88.7 °F 79.7 °F 30.12 in Calm   4.0 mph 75 % 0.00 in
09:50 89.4 °F 80.8 °F 30.12 in Calm   3.0 mph 76 % 0.00 in
09:55 89.8 °F 79.9 °F 30.12 in SSE 3.0 mph 4.0 mph 73 % 0.00 in
10:00 89.8 °F 79.9 °F 30.12 in Calm   5.0 mph 73 % 0.00 in
10:05 90.1 °F 79.9 °F 30.13 in Calm   5.0 mph 72 % 0.00 in
10:10 91.0 °F 79.9 °F 30.13 in West 1.0 mph 5.0 mph 70 % 0.00 in
10:15 91.6 °F 79.9 °F 30.12 in SSW 3.0 mph 4.0 mph 69 % 0.00 in
10:20 90.9 °F 78.8 °F 30.13 in SE 3.0 mph 6.0 mph 68 % 0.00 in
10:25 90.3 °F 79.2 °F 30.12 in South 2.0 mph 6.0 mph 70 % 0.00 in
10:30 90.7 °F 79.5 °F 30.12 in ESE 8.0 mph 8.0 mph 70 % 0.00 in
10:35 90.9 °F 79.7 °F 30.13 in SE 1.0 mph 8.0 mph 70 % 0.00 in
10:40 90.9 °F 80.6 °F 30.12 in South 2.0 mph 8.0 mph 72 % 0.00 in
10:45 90.9 °F 79.3 °F 30.12 in South 2.0 mph 8.0 mph 69 % 0.00 in
10:50 90.7 °F 78.3 °F 30.12 in SSE 2.0 mph 6.0 mph 67 % 0.00 in
10:55 90.3 °F 78.8 °F 30.12 in Calm   6.0 mph 69 % 0.00 in
11:00 91.0 °F 79.9 °F 30.12 in SE 2.0 mph 6.0 mph 70 % 0.00 in
11:05 91.4 °F 78.8 °F 30.12 in NW 1.0 mph 5.0 mph 67 % 0.00 in
11:10 91.8 °F 79.2 °F 30.12 in SSW 3.0 mph 5.0 mph 67 % 0.00 in
11:15 91.8 °F 78.8 °F 30.12 in SSW 2.0 mph 5.0 mph 66 % 0.00 in
11:20 90.9 °F 77.9 °F 30.12 in SSE 1.0 mph 5.0 mph 66 % 0.00 in
11:25 90.9 °F 78.8 °F 30.12 in SSW 1.0 mph 5.0 mph 68 % 0.00 in
11:30 91.0 °F 78.6 °F 30.12 in ESE 3.0 mph 4.0 mph 67 % 0.00 in
11:35 91.2 °F 79.2 °F 30.12 in Calm   4.0 mph 68 % 0.00 in
11:40 91.9 °F 79.9 °F 30.12 in Calm   4.0 mph 68 % 0.00 in
11:45 92.5 °F 79.9 °F 30.12 in ESE 1.0 mph 4.0 mph 67 % 0.00 in
11:50 93.4 °F 81.7 °F 30.12 in SSE 1.0 mph 3.0 mph 69 % 0.00 in
11:55 93.7 °F 78.8 °F 30.12 in SSW 2.0 mph 6.0 mph 62 % 0.00 in
12:00 93.7 °F 77.7 °F 30.12 in ESE 5.0 mph 6.0 mph 60 % 0.00 in
12:05 93.2 °F 77.7 °F 30.12 in East 3.0 mph 6.0 mph 61 % 0.00 in
12:10 93.0 °F 78.6 °F 30.12 in Calm   6.0 mph 63 % 0.00 in
12:15 93.2 °F 78.3 °F 30.11 in WNW 1.0 mph 5.0 mph 62 % 0.00 in
12:20 92.7 °F 77.7 °F 30.11 in NW 3.0 mph 4.0 mph 62 % 0.00 in
12:21 92.5 °F 77.5 °F 30.11 in West 1.0 mph 4.0 mph 62 % 0.00 in
12:26 92.1 °F 77.7 °F 30.11 in Calm   5.0 mph 63 % 0.00 in
12:31 92.5 °F 78.4 °F 30.11 in West 1.0 mph 5.0 mph 64 % 0.00 in
12:36 92.7 °F 77.7 °F 30.11 in SSW 1.0 mph 5.0 mph 62 % 0.00 in
12:41 92.8 °F 77.4 °F 30.11 in NNW 2.0 mph 3.0 mph 61 % 0.00 in
12:46 92.8 °F 76.8 °F 30.11 in NW 1.0 mph 3.0 mph 60 % 0.00 in
12:51 92.8 °F 77.4 °F 30.11 in Calm   4.0 mph 61 % 0.00 in
12:56 93.6 °F 80.1 °F 30.10 in East 4.0 mph 4.0 mph 65 % 0.00 in
13:01 93.9 °F 76.8 °F 30.10 in East 2.0 mph 5.0 mph 58 % 0.00 in
13:06 94.5 °F 76.3 °F 30.10 in Calm   5.0 mph 56 % 0.00 in
13:11 94.5 °F 76.8 °F 30.10 in North 3.0 mph 5.0 mph 57 % 0.00 in
13:16 93.7 °F 77.2 °F 30.10 in North 4.0 mph 4.0 mph 59 % 0.00 in
13:21 93.6 °F 76.6 °F 30.09 in Calm   4.0 mph 58 % 0.00 in
13:26 93.6 °F 77.0 °F 30.09 in Calm   4.0 mph 59 % 0.00 in
13:31 93.9 °F 76.8 °F 30.09 in Calm   4.0 mph 58 % 0.00 in
13:36 94.8 °F 78.3 °F 30.09 in Calm   3.0 mph 59 % 0.00 in
13:41 95.7 °F 78.1 °F 30.09 in SSW 1.0 mph 3.0 mph 57 % 0.00 in
13:46 95.7 °F 76.5 °F 30.09 in SSW 1.0 mph 6.0 mph 54 % 0.00 in
13:51 94.6 °F 76.5 °F 30.08 in Calm   6.0 mph 56 % 0.00 in
13:56 94.5 °F 76.3 °F 30.08 in SE 2.0 mph 6.0 mph 56 % 0.00 in
14:01 95.0 °F 79.0 °F 30.07 in Calm   5.0 mph 60 % 0.00 in
14:06 96.1 °F 79.0 °F 30.07 in SSE 4.0 mph 4.0 mph 58 % 0.00 in
14:11 95.5 °F 75.7 °F 30.07 in Calm   4.0 mph 53 % 0.00 in
14:16 95.5 °F 76.3 °F 30.07 in Calm   4.0 mph 54 % 0.00 in
14:21 95.9 °F 77.7 °F 30.07 in NNW 1.0 mph 4.0 mph 56 % 0.00 in
14:26 96.1 °F 75.6 °F 30.07 in ENE 3.0 mph 3.0 mph 52 % 0.00 in
14:31 95.4 °F 75.6 °F 30.07 in SE 1.0 mph 5.0 mph 53 % 0.00 in
14:36 95.4 °F 75.0 °F 30.06 in Calm   5.0 mph 52 % 0.00 in
14:41 96.3 °F 78.6 °F 30.06 in ENE 2.0 mph 5.0 mph 57 % 0.00 in
14:46 96.6 °F 77.7 °F 30.06 in Calm   5.0 mph 55 % 0.00 in
14:51 97.0 °F 75.9 °F 30.06 in ENE 1.0 mph 5.0 mph 51 % 0.00 in
14:56 97.2 °F 75.9 °F 30.06 in ESE 7.0 mph 7.0 mph 51 % 0.00 in
15:02 97.0 °F 76.5 °F 30.06 in East 4.0 mph 9.0 mph 52 % 0.00 in
15:07 96.6 °F 77.7 °F 30.06 in ESE 3.0 mph 9.0 mph 55 % 0.00 in
15:12 95.5 °F 77.4 °F 30.05 in SE 5.0 mph 9.0 mph 56 % 0.00 in
15:17 94.5 °F 77.4 °F 30.05 in SE 6.0 mph 9.0 mph 58 % 0.00 in
15:22 93.6 °F 77.0 °F 30.05 in ENE 3.0 mph 9.0 mph 59 % 0.00 in
15:27 93.4 °F 77.4 °F 30.05 in ESE 3.0 mph 9.0 mph 60 % 0.00 in
15:32 93.0 °F 78.1 °F 30.05 in SE 3.0 mph 8.0 mph 62 % 0.00 in
15:37 92.5 °F 77.5 °F 30.05 in SE 6.0 mph 9.0 mph 62 % 0.00 in
15:42 91.9 °F 78.1 °F 30.05 in East 8.0 mph 9.0 mph 64 % 0.00 in
15:47 91.9 °F 78.4 °F 30.05 in SE 4.0 mph 9.0 mph 65 % 0.00 in
15:52 91.9 °F 77.5 °F 30.05 in SE 3.0 mph 9.0 mph 63 % 0.00 in
15:57 91.8 °F 77.4 °F 30.05 in SSE 3.0 mph 9.0 mph 63 % 0.00 in
16:02 91.6 °F 77.7 °F 30.05 in East 7.0 mph 9.0 mph 64 % 0.00 in
16:07 90.9 °F 77.5 °F 30.05 in SW 4.0 mph 11.0 mph 65 % 0.00 in
16:12 90.3 °F 77.9 °F 30.05 in SE 8.0 mph 11.0 mph 67 % 0.00 in
16:17 89.8 °F 76.8 °F 30.05 in SSE 11.0 mph 14.0 mph 66 % 0.00 in
16:22 89.2 °F 76.8 °F 30.04 in SE 8.0 mph 14.0 mph 67 % 0.00 in
16:27 89.2 °F 77.7 °F 30.04 in SSE 3.0 mph 14.0 mph 69 % 0.00 in
16:32 89.2 °F 76.5 °F 30.05 in SE 5.0 mph 13.0 mph 66 % 0.00 in
16:37 88.9 °F 76.1 °F 30.05 in SSW 6.0 mph 11.0 mph 66 % 0.00 in
16:42 88.5 °F 75.7 °F 30.04 in SSE 6.0 mph 11.0 mph 66 % 0.00 in
16:47 88.5 °F 75.7 °F 30.04 in South 4.0 mph 10.0 mph 66 % 0.00 in
16:52 88.5 °F 76.1 °F 30.04 in SSW 5.0 mph 10.0 mph 67 % 0.00 in
16:57 88.5 °F 76.1 °F 30.04 in SSE 4.0 mph 10.0 mph 67 % 0.00 in
17:02 88.7 °F 76.3 °F 30.04 in South 2.0 mph 9.0 mph 67 % 0.00 in
17:07 88.9 °F 76.1 °F 30.04 in WSW 4.0 mph 8.0 mph 66 % 0.00 in
17:12 88.5 °F 75.2 °F 30.04 in South 4.0 mph 8.0 mph 65 % 0.00 in
17:17 88.5 °F 75.7 °F 30.04 in SSW 3.0 mph 8.0 mph 66 % 0.00 in
17:22 88.7 °F 75.9 °F 30.04 in SSE 7.0 mph 8.0 mph 66 % 0.00 in
17:27 88.9 °F 75.6 °F 30.03 in SSW 3.0 mph 7.0 mph 65 % 0.00 in
17:32 89.2 °F 76.5 °F 30.03 in SE 4.0 mph 8.0 mph 66 % 0.00 in
17:37 90.0 °F 76.6 °F 30.03 in SSE 6.0 mph 8.0 mph 65 % 0.00 in
17:42 90.1 °F 76.8 °F 30.03 in South 6.0 mph 9.0 mph 65 % 0.00 in
17:47 90.5 °F 76.6 °F 30.03 in SSE 4.0 mph 9.0 mph 64 % 0.00 in
17:52 90.7 °F 76.8 °F 30.03 in ESE 3.0 mph 9.0 mph 64 % 0.00 in
17:57 90.9 °F 77.0 °F 30.03 in East 6.0 mph 8.0 mph 64 % 0.00 in
18:02 91.2 °F 77.4 °F 30.03 in SSW 7.0 mph 9.0 mph 64 % 0.00 in
18:07 91.2 °F 76.8 °F 30.03 in South 5.0 mph 9.0 mph 63 % 0.00 in
18:12 91.0 °F 77.2 °F 30.03 in SSE 5.0 mph 9.0 mph 64 % 0.00 in
18:17 90.9 °F 77.0 °F 30.03 in ESE 6.0 mph 9.0 mph 64 % 0.00 in
18:22 91.0 °F 77.2 °F 30.03 in SSE 3.0 mph 9.0 mph 64 % 0.00 in
18:27 91.2 °F 77.4 °F 30.03 in SSE 4.0 mph 7.0 mph 64 % 0.00 in
18:32 91.2 °F 77.4 °F 30.02 in SE 6.0 mph 7.0 mph 64 % 0.00 in
18:37 91.4 °F 77.5 °F 30.03 in South 5.0 mph 7.0 mph 64 % 0.00 in
18:42 91.4 °F 77.5 °F 30.03 in SSW 4.0 mph 7.0 mph 64 % 0.00 in
18:47 91.4 °F 77.0 °F 30.03 in SE 3.0 mph 7.0 mph 63 % 0.00 in
18:52 91.2 °F 76.8 °F 30.03 in SSE 4.0 mph 8.0 mph 63 % 0.00 in
18:57 91.2 °F 76.8 °F 30.03 in SSE 8.0 mph 8.0 mph 63 % 0.00 in
19:02 91.2 °F 77.4 °F 30.02 in SE 3.0 mph 8.0 mph 64 % 0.00 in
19:07 91.0 °F 77.2 °F 30.03 in South 3.0 mph 8.0 mph 64 % 0.00 in
19:12 91.0 °F 77.2 °F 30.02 in South 3.0 mph 9.0 mph 64 % 0.00 in
19:17 90.9 °F 77.0 °F 30.02 in SSE 5.0 mph 9.0 mph 64 % 0.00 in
19:22 90.9 °F 77.0 °F 30.02 in South 6.0 mph 9.0 mph 64 % 0.00 in
19:27 90.5 °F 77.2 °F 30.02 in SSW 2.0 mph 9.0 mph 65 % 0.00 in
19:32 90.1 °F 76.8 °F 30.02 in SE 4.0 mph 9.0 mph 65 % 0.00 in
19:37 89.8 °F 76.8 °F 30.02 in ESE 5.0 mph 8.0 mph 66 % 0.00 in
19:42 89.6 °F 77.2 °F 30.03 in SSE 4.0 mph 8.0 mph 67 % 0.00 in
19:47 89.4 °F 77.0 °F 30.03 in SSE 1.0 mph 8.0 mph 67 % 0.00 in
19:52 89.2 °F 77.4 °F 30.03 in SE 3.0 mph 7.0 mph 68 % 0.00 in
19:57 89.1 °F 77.2 °F 30.03 in SE 4.0 mph 7.0 mph 68 % 0.00 in
19:59 88.9 °F 77.0 °F 30.02 in ESE 2.0 mph 7.0 mph 68 % 0.00 in
20:04 88.7 °F 77.2 °F 30.03 in SE 3.0 mph 8.0 mph 69 % 0.00 in
20:09 88.5 °F 77.5 °F 30.03 in SSW 2.0 mph 8.0 mph 70 % 0.00 in
20:14 88.3 °F 77.7 °F 30.03 in ESE 3.0 mph 8.0 mph 71 % 0.00 in
20:19 88.2 °F 77.5 °F 30.02 in SSE 2.0 mph 7.0 mph 71 % 0.00 in
20:24 88.0 °F 77.9 °F 30.02 in SSW 3.0 mph 6.0 mph 72 % 0.00 in
20:29 87.8 °F 77.7 °F 30.02 in SE 1.0 mph 5.0 mph 72 % 0.00 in
20:34 87.6 °F 77.9 °F 30.02 in SSE 2.0 mph 5.0 mph 73 % 0.00 in
20:39 87.4 °F 78.1 °F 30.02 in SSE 1.0 mph 5.0 mph 74 % 0.00 in
20:44 87.1 °F 78.3 °F 30.02 in SE 2.0 mph 4.0 mph 75 % 0.00 in
20:49 86.9 °F 78.1 °F 30.03 in Calm   4.0 mph 75 % 0.00 in
20:54 86.7 °F 78.3 °F 30.03 in Calm   4.0 mph 76 % 0.00 in
20:59 86.5 °F 78.1 °F 30.03 in Calm   3.0 mph 76 % 0.00 in
21:04 86.7 °F 78.3 °F 30.02 in ESE 2.0 mph 3.0 mph 76 % 0.00 in
21:09 86.7 °F 78.3 °F 30.03 in East 2.0 mph 4.0 mph 76 % 0.00 in
21:14 86.5 °F 78.1 °F 30.03 in Calm   4.0 mph 76 % 0.00 in
21:19 86.5 °F 78.1 °F 30.03 in Calm   4.0 mph 76 % 0.00 in
21:24 86.4 °F 77.9 °F 30.03 in ESE 2.0 mph 4.0 mph 76 % 0.00 in
21:29 86.4 °F 78.3 °F 30.04 in ESE 1.0 mph 3.0 mph 77 % 0.00 in
21:34 86.2 °F 78.1 °F 30.04 in ESE 2.0 mph 4.0 mph 77 % 0.00 in
21:39 86.2 °F 78.1 °F 30.04 in SE 2.0 mph 4.0 mph 77 % 0.00 in
21:44 86.2 °F 78.4 °F 30.04 in Calm   5.0 mph 78 % 0.00 in
21:49 85.8 °F 78.1 °F 30.04 in Calm   5.0 mph 78 % 0.00 in
21:54 85.8 °F 78.1 °F 30.04 in Calm   5.0 mph 78 % 0.00 in
21:59 85.6 °F 77.9 °F 30.04 in Calm   3.0 mph 78 % 0.00 in
22:04 85.6 °F 77.9 °F 30.04 in ENE 2.0 mph 3.0 mph 78 % 0.00 in
22:09 85.6 °F 77.9 °F 30.04 in Calm   2.0 mph 78 % 0.00 in
22:14 85.5 °F 78.3 °F 30.04 in Calm   2.0 mph 79 % 0.00 in
22:19 85.3 °F 78.1 °F 30.04 in SSE 2.0 mph 2.0 mph 79 % 0.00 in
22:24 85.3 °F 78.1 °F 30.04 in SSE 1.0 mph 3.0 mph 79 % 0.00 in
22:29 85.1 °F 78.3 °F 30.04 in South 1.0 mph 4.0 mph 80 % 0.00 in
22:35 84.9 °F 78.1 °F 30.04 in SSE 2.0 mph 4.0 mph 80 % 0.00 in
22:40 84.9 °F 78.1 °F 30.05 in SSE 1.0 mph 7.0 mph 80 % 0.00 in
22:45 84.9 °F 78.1 °F 30.05 in SE 4.0 mph 7.0 mph 80 % 0.00 in
22:50 84.9 °F 78.4 °F 30.05 in SSE 1.0 mph 7.0 mph 81 % 0.00 in
22:55 84.7 °F 78.3 °F 30.05 in SSE 4.0 mph 6.0 mph 81 % 0.00 in
23:00 84.7 °F 78.3 °F 30.05 in SSE 2.0 mph 6.0 mph 81 % 0.00 in
23:05 84.6 °F 78.1 °F 30.05 in South 3.0 mph 5.0 mph 81 % 0.00 in
23:10 84.6 °F 78.4 °F 30.05 in SSW 2.0 mph 5.0 mph 82 % 0.00 in
23:15 84.4 °F 78.3 °F 30.05 in SSE 1.0 mph 5.0 mph 82 % 0.00 in
23:20 84.2 °F 78.1 °F 30.05 in South 2.0 mph 5.0 mph 82 % 0.00 in
23:25 84.0 °F 78.3 °F 30.05 in SSE 2.0 mph 4.0 mph 83 % 0.00 in
23:30 84.0 °F 78.3 °F 30.05 in South 1.0 mph 4.0 mph 83 % 0.00 in
23:35 83.8 °F 78.1 °F 30.06 in SSE 2.0 mph 3.0 mph 83 % 0.00 in
23:40 83.8 °F 78.4 °F 30.06 in Calm   3.0 mph 84 % 0.00 in
23:41 83.8 °F 78.4 °F 30.06 in SSW 1.0 mph 3.0 mph 84 % 0.00 in
23:46 83.7 °F 78.3 °F 30.06 in Calm   3.0 mph 84 % 0.00 in
23:51 83.5 °F 78.1 °F 30.06 in SSE 2.0 mph 3.0 mph 84 % 0.00 in
23:56 83.5 °F 78.1 °F 30.06 in SSE 1.0 mph 3.0 mph 84 % 0.00 in
Spring, Texas: Villages of Bridgestone
Compliments of Weather Underground - 3.25 mb

Script developed by  Jim McMurry - jmcmurry@mwt.net Adapted for the template by  Wim van der Kuil - Leuven-Template.eu

You find our weather info also at:

UK Metoffice

WeatherCloud

Weather Underground

Mid-South Weather Network

AWEKAS

Citizen Weather Observer Program (CWOP)

HAMweather, WeatherForYou, PWS Weather

Equipment we use:

Weather-station
Davis Vantage Vue

Weather-program
Meteohub

Weather-server
Debian 7.9 x86 (Guest)

Provider
DreamHost

Davis Vantage Vue

Meteohub

Debian 7.9 x86 (Guest)

DreamHost